sensor_id;sensor_type;location;lat;lon;timestamp;temperature;humidity
65074;DHT22;52218;51.224;-2.328;2022-12-29T00:01:45;8.60;99.90
65074;DHT22;52218;51.224;-2.328;2022-12-29T00:05:27;8.50;99.90
65074;DHT22;52218;51.224;-2.328;2022-12-29T00:09:11;8.50;99.90
65074;DHT22;52218;51.224;-2.328;2022-12-29T00:12:56;8.40;99.90
65074;DHT22;52218;51.224;-2.328;2022-12-29T00:16:57;8.40;99.90
65074;DHT22;52218;51.224;-2.328;2022-12-29T00:20:39;8.40;99.90
65074;DHT22;52218;51.224;-2.328;2022-12-29T00:24:39;8.40;99.90
65074;DHT22;52218;51.224;-2.328;2022-12-29T00:28:40;8.40;99.90
65074;DHT22;52218;51.224;-2.328;2022-12-29T00:32:45;8.30;99.90
65074;DHT22;52218;51.224;-2.328;2022-12-29T00:36:46;8.30;99.90
65074;DHT22;52218;51.224;-2.328;2022-12-29T00:40:28;8.30;99.90
65074;DHT22;52218;51.224;-2.328;2022-12-29T00:44:28;8.30;99.90
65074;DHT22;52218;51.224;-2.328;2022-12-29T00:48:10;8.30;99.90
65074;DHT22;52218;51.224;-2.328;2022-12-29T00:51:54;8.20;99.90
65074;DHT22;52218;51.224;-2.328;2022-12-29T00:55:38;8.30;99.90
65074;DHT22;52218;51.224;-2.328;2022-12-29T00:59:21;8.20;99.90
65074;DHT22;52218;51.224;-2.328;2022-12-29T01:03:03;8.20;99.90
65074;DHT22;52218;51.224;-2.328;2022-12-29T01:06:45;8.10;99.90
65074;DHT22;52218;51.224;-2.328;2022-12-29T01:10:27;8.00;99.90
65074;DHT22;52218;51.224;-2.328;2022-12-29T01:14:09;8.10;99.90
65074;DHT22;52218;51.224;-2.328;2022-12-29T01:17:51;8.10;99.90
65074;DHT22;52218;51.224;-2.328;2022-12-29T01:21:33;8.10;99.90
65074;DHT22;52218;51.224;-2.328;2022-12-29T01:25:15;8.20;99.90
65074;DHT22;52218;51.224;-2.328;2022-12-29T01:28:58;8.30;99.90
65074;DHT22;52218;51.224;-2.328;2022-12-29T01:32:40;8.30;99.90
65074;DHT22;52218;51.224;-2.328;2022-12-29T01:36:24;8.40;99.90
65074;DHT22;52218;51.224;-2.328;2022-12-29T01:40:07;8.50;99.90
65074;DHT22;52218;51.224;-2.328;2022-12-29T01:43:55;8.60;99.90
65074;DHT22;52218;51.224;-2.328;2022-12-29T01:51:31;8.80;99.90
65074;DHT22;52218;51.224;-2.328;2022-12-29T01:55:14;8.90;99.90
65074;DHT22;52218;51.224;-2.328;2022-12-29T01:59:04;9.00;99.90
65074;DHT22;52218;51.224;-2.328;2022-12-29T02:02:52;9.00;99.90
65074;DHT22;52218;51.224;-2.328;2022-12-29T02:06:41;9.10;99.90
65074;DHT22;52218;51.224;-2.328;2022-12-29T02:10:26;9.10;99.90
65074;DHT22;52218;51.224;-2.328;2022-12-29T02:14:11;9.10;99.90
65074;DHT22;52218;51.224;-2.328;2022-12-29T02:29:38;9.30;99.90
65074;DHT22;52218;51.224;-2.328;2022-12-29T02:37:25;9.30;99.90
65074;DHT22;52218;51.224;-2.328;2022-12-29T02:45:15;9.40;99.90
65074;DHT22;52218;51.224;-2.328;2022-12-29T02:52:58;9.40;99.90
65074;DHT22;52218;51.224;-2.328;2022-12-29T02:56:41;9.50;99.90
65074;DHT22;52218;51.224;-2.328;2022-12-29T03:00:23;9.40;99.90
65074;DHT22;52218;51.224;-2.328;2022-12-29T03:04:29;9.20;99.90
65074;DHT22;52218;51.224;-2.328;2022-12-29T03:08:26;9.10;99.90
65074;DHT22;52218;51.224;-2.328;2022-12-29T03:20:07;9.00;99.90
65074;DHT22;52218;51.224;-2.328;2022-12-29T03:23:50;8.90;99.90
65074;DHT22;52218;51.224;-2.328;2022-12-29T03:27:38;8.90;99.90
65074;DHT22;52218;51.224;-2.328;2022-12-29T03:31:21;8.80;99.90
65074;DHT22;52218;51.224;-2.328;2022-12-29T03:35:05;8.80;99.90
65074;DHT22;52218;51.224;-2.328;2022-12-29T03:39:02;8.70;99.90
65074;DHT22;52218;51.224;-2.328;2022-12-29T03:42:46;8.70;99.90
65074;DHT22;52218;51.224;-2.328;2022-12-29T03:46:29;8.60;99.90
65074;DHT22;52218;51.224;-2.328;2022-12-29T03:50:12;8.60;99.90
65074;DHT22;52218;51.224;-2.328;2022-12-29T03:53:55;8.60;99.90
65074;DHT22;52218;51.224;-2.328;2022-12-29T03:57:37;8.50;99.90
65074;DHT22;52218;51.224;-2.328;2022-12-29T04:01:19;8.50;99.90
65074;DHT22;52218;51.224;-2.328;2022-12-29T04:05:01;8.50;99.90
65074;DHT22;52218;51.224;-2.328;2022-12-29T04:08:43;8.50;99.90
65074;DHT22;52218;51.224;-2.328;2022-12-29T04:12:25;8.50;99.90
65074;DHT22;52218;51.224;-2.328;2022-12-29T04:16:07;8.50;99.90
65074;DHT22;52218;51.224;-2.328;2022-12-29T04:19:50;8.40;99.90
65074;DHT22;52218;51.224;-2.328;2022-12-29T04:23:35;8.30;99.90
65074;DHT22;52218;51.224;-2.328;2022-12-29T04:27:17;8.30;99.90
65074;DHT22;52218;51.224;-2.328;2022-12-29T04:30:59;8.20;99.90
65074;DHT22;52218;51.224;-2.328;2022-12-29T04:34:41;8.20;99.90
65074;DHT22;52218;51.224;-2.328;2022-12-29T04:38:23;8.30;99.90
65074;DHT22;52218;51.224;-2.328;2022-12-29T04:42:06;8.30;99.90
65074;DHT22;52218;51.224;-2.328;2022-12-29T04:45:48;8.40;99.90
65074;DHT22;52218;51.224;-2.328;2022-12-29T04:49:30;8.30;99.90
65074;DHT22;52218;51.224;-2.328;2022-12-29T04:53:12;8.20;99.90
65074;DHT22;52218;51.224;-2.328;2022-12-29T04:56:54;8.20;99.90
65074;DHT22;52218;51.224;-2.328;2022-12-29T05:00:36;8.20;99.90
65074;DHT22;52218;51.224;-2.328;2022-12-29T05:04:18;8.10;99.90
65074;DHT22;52218;51.224;-2.328;2022-12-29T05:08:00;8.10;99.90
65074;DHT22;52218;51.224;-2.328;2022-12-29T05:11:42;8.00;99.90
65074;DHT22;52218;51.224;-2.328;2022-12-29T05:15:24;7.90;99.90
65074;DHT22;52218;51.224;-2.328;2022-12-29T05:19:06;7.90;99.90
65074;DHT22;52218;51.224;-2.328;2022-12-29T05:22:48;7.90;99.90
65074;DHT22;52218;51.224;-2.328;2022-12-29T05:26:31;7.90;99.90
65074;DHT22;52218;51.224;-2.328;2022-12-29T05:30:13;7.90;99.90
65074;DHT22;52218;51.224;-2.328;2022-12-29T05:33:55;7.90;99.90
65074;DHT22;52218;51.224;-2.328;2022-12-29T05:37:37;7.90;99.90
65074;DHT22;52218;51.224;-2.328;2022-12-29T05:41:19;7.90;99.90
65074;DHT22;52218;51.224;-2.328;2022-12-29T05:45:02;7.90;99.90
65074;DHT22;52218;51.224;-2.328;2022-12-29T05:48:44;7.90;99.90
65074;DHT22;52218;51.224;-2.328;2022-12-29T05:52:26;7.90;99.90
65074;DHT22;52218;51.224;-2.328;2022-12-29T05:56:08;7.80;99.90
65074;DHT22;52218;51.224;-2.328;2022-12-29T05:59:50;7.80;99.90
65074;DHT22;52218;51.224;-2.328;2022-12-29T06:03:32;7.80;99.90
65074;DHT22;52218;51.224;-2.328;2022-12-29T06:07:14;7.90;99.90
65074;DHT22;52218;51.224;-2.328;2022-12-29T06:10:56;7.90;99.90
65074;DHT22;52218;51.224;-2.328;2022-12-29T06:14:38;7.90;99.90
65074;DHT22;52218;51.224;-2.328;2022-12-29T06:18:20;8.00;99.90
65074;DHT22;52218;51.224;-2.328;2022-12-29T06:22:02;8.00;99.90
65074;DHT22;52218;51.224;-2.328;2022-12-29T06:25:46;7.90;99.90
65074;DHT22;52218;51.224;-2.328;2022-12-29T06:29:28;7.90;99.90
65074;DHT22;52218;51.224;-2.328;2022-12-29T06:33:11;7.90;99.90
65074;DHT22;52218;51.224;-2.328;2022-12-29T06:36:53;7.90;99.90
65074;DHT22;52218;51.224;-2.328;2022-12-29T06:40:35;7.90;99.90
65074;DHT22;52218;51.224;-2.328;2022-12-29T06:44:17;7.80;99.90
65074;DHT22;52218;51.224;-2.328;2022-12-29T06:47:59;7.80;99.90
65074;DHT22;52218;51.224;-2.328;2022-12-29T06:51:41;7.80;99.90
65074;DHT22;52218;51.224;-2.328;2022-12-29T06:55:23;7.80;99.90
65074;DHT22;52218;51.224;-2.328;2022-12-29T06:59:05;7.80;99.90
65074;DHT22;52218;51.224;-2.328;2022-12-29T07:02:47;7.80;99.90
65074;DHT22;52218;51.224;-2.328;2022-12-29T07:06:30;7.80;99.90
65074;DHT22;52218;51.224;-2.328;2022-12-29T07:10:12;7.80;99.90
65074;DHT22;52218;51.224;-2.328;2022-12-29T07:13:54;7.80;99.90
65074;DHT22;52218;51.224;-2.328;2022-12-29T07:17:36;7.80;99.90
65074;DHT22;52218;51.224;-2.328;2022-12-29T07:21:18;7.70;99.90
65074;DHT22;52218;51.224;-2.328;2022-12-29T07:25:00;7.70;99.90
65074;DHT22;52218;51.224;-2.328;2022-12-29T07:28:43;7.70;99.90
65074;DHT22;52218;51.224;-2.328;2022-12-29T07:32:25;7.80;99.90
65074;DHT22;52218;51.224;-2.328;2022-12-29T07:36:07;7.70;99.90
65074;DHT22;52218;51.224;-2.328;2022-12-29T07:39:49;7.70;99.90
65074;DHT22;52218;51.224;-2.328;2022-12-29T07:43:31;7.70;99.90
65074;DHT22;52218;51.224;-2.328;2022-12-29T07:47:13;7.70;99.90
65074;DHT22;52218;51.224;-2.328;2022-12-29T07:50:55;7.80;99.90
65074;DHT22;52218;51.224;-2.328;2022-12-29T07:54:37;7.80;99.90
65074;DHT22;52218;51.224;-2.328;2022-12-29T07:58:19;7.70;99.90
65074;DHT22;52218;51.224;-2.328;2022-12-29T08:02:01;7.70;99.90
65074;DHT22;52218;51.224;-2.328;2022-12-29T08:05:43;7.70;99.90
65074;DHT22;52218;51.224;-2.328;2022-12-29T08:09:25;7.60;99.90
65074;DHT22;52218;51.224;-2.328;2022-12-29T08:13:07;7.60;99.90
65074;DHT22;52218;51.224;-2.328;2022-12-29T08:16:49;7.50;99.90
65074;DHT22;52218;51.224;-2.328;2022-12-29T08:20:32;7.40;99.90
65074;DHT22;52218;51.224;-2.328;2022-12-29T08:24:14;7.40;99.90
65074;DHT22;52218;51.224;-2.328;2022-12-29T08:27:56;7.40;99.90
65074;DHT22;52218;51.224;-2.328;2022-12-29T08:31:38;7.30;99.90
65074;DHT22;52218;51.224;-2.328;2022-12-29T08:35:20;7.30;99.90
65074;DHT22;52218;51.224;-2.328;2022-12-29T08:39:02;7.30;99.90
65074;DHT22;52218;51.224;-2.328;2022-12-29T08:42:44;7.20;99.90
65074;DHT22;52218;51.224;-2.328;2022-12-29T08:46:26;7.20;99.90
65074;DHT22;52218;51.224;-2.328;2022-12-29T08:50:08;7.20;99.90
65074;DHT22;52218;51.224;-2.328;2022-12-29T08:53:51;7.20;99.90
65074;DHT22;52218;51.224;-2.328;2022-12-29T08:57:33;7.10;99.90
65074;DHT22;52218;51.224;-2.328;2022-12-29T09:01:15;7.10;99.90
65074;DHT22;52218;51.224;-2.328;2022-12-29T09:04:57;7.10;99.90
65074;DHT22;52218;51.224;-2.328;2022-12-29T09:08:40;7.20;99.90
65074;DHT22;52218;51.224;-2.328;2022-12-29T09:12:22;7.20;99.90
65074;DHT22;52218;51.224;-2.328;2022-12-29T09:16:05;7.30;99.90
65074;DHT22;52218;51.224;-2.328;2022-12-29T09:19:47;7.30;99.90
65074;DHT22;52218;51.224;-2.328;2022-12-29T09:23:30;7.20;99.90
65074;DHT22;52218;51.224;-2.328;2022-12-29T09:27:12;7.20;99.90
65074;DHT22;52218;51.224;-2.328;2022-12-29T09:30:55;7.20;99.90
65074;DHT22;52218;51.224;-2.328;2022-12-29T09:34:37;7.20;99.90
65074;DHT22;52218;51.224;-2.328;2022-12-29T09:38:19;7.20;99.90
65074;DHT22;52218;51.224;-2.328;2022-12-29T09:53:57;7.20;99.90
65074;DHT22;52218;51.224;-2.328;2022-12-29T09:57:53;7.20;99.90
65074;DHT22;52218;51.224;-2.328;2022-12-29T10:02:29;7.20;99.90
65074;DHT22;52218;51.224;-2.328;2022-12-29T10:06:54;7.20;99.90
65074;DHT22;52218;51.224;-2.328;2022-12-29T10:15:49;7.30;99.90
65074;DHT22;52218;51.224;-2.328;2022-12-29T10:23:46;7.50;99.90
65074;DHT22;52218;51.224;-2.328;2022-12-29T10:27:31;7.50;99.90
65074;DHT22;52218;51.224;-2.328;2022-12-29T10:31:18;7.60;99.90
65074;DHT22;52218;51.224;-2.328;2022-12-29T10:35:53;7.60;99.90
65074;DHT22;52218;51.224;-2.328;2022-12-29T10:39:26;7.70;99.90
65074;DHT22;52218;51.224;-2.328;2022-12-29T10:43:37;7.80;99.90
65074;DHT22;52218;51.224;-2.328;2022-12-29T10:47:29;7.90;99.90
65074;DHT22;52218;51.224;-2.328;2022-12-29T10:51:22;7.90;99.90
65074;DHT22;52218;51.224;-2.328;2022-12-29T10:55:13;7.90;99.90
65074;DHT22;52218;51.224;-2.328;2022-12-29T10:59:01;7.90;99.90
65074;DHT22;52218;51.224;-2.328;2022-12-29T11:06:36;8.00;99.90
65074;DHT22;52218;51.224;-2.328;2022-12-29T11:10:38;8.00;99.90
65074;DHT22;52218;51.224;-2.328;2022-12-29T11:14:30;8.00;99.90
65074;DHT22;52218;51.224;-2.328;2022-12-29T11:22:25;8.10;99.90
65074;DHT22;52218;51.224;-2.328;2022-12-29T11:26:14;8.20;99.90
65074;DHT22;52218;51.224;-2.328;2022-12-29T11:29:57;8.30;99.90
65074;DHT22;52218;51.224;-2.328;2022-12-29T11:33:39;8.40;99.90
65074;DHT22;52218;51.224;-2.328;2022-12-29T11:37:31;8.50;99.90
65074;DHT22;52218;51.224;-2.328;2022-12-29T11:41:27;8.50;99.90
65074;DHT22;52218;51.224;-2.328;2022-12-29T11:45:24;8.60;99.90
65074;DHT22;52218;51.224;-2.328;2022-12-29T11:49:18;8.80;99.90
65074;DHT22;52218;51.224;-2.328;2022-12-29T11:53:25;8.90;99.90
65074;DHT22;52218;51.224;-2.328;2022-12-29T11:57:16;9.00;99.90
65074;DHT22;52218;51.224;-2.328;2022-12-29T12:01:07;9.10;99.90
65074;DHT22;52218;51.224;-2.328;2022-12-29T12:04:51;9.10;99.90
65074;DHT22;52218;51.224;-2.328;2022-12-29T12:08:48;9.20;99.90
65074;DHT22;52218;51.224;-2.328;2022-12-29T12:12:58;9.40;99.90
65074;DHT22;52218;51.224;-2.328;2022-12-29T12:16:46;10.00;99.90
65074;DHT22;52218;51.224;-2.328;2022-12-29T12:20:54;10.80;99.90
65074;DHT22;52218;51.224;-2.328;2022-12-29T12:24:45;11.00;99.90
65074;DHT22;52218;51.224;-2.328;2022-12-29T12:29:01;11.10;99.90
65074;DHT22;52218;51.224;-2.328;2022-12-29T12:32:59;11.40;99.90
65074;DHT22;52218;51.224;-2.328;2022-12-29T12:53:12;11.30;99.90
65074;DHT22;52218;51.224;-2.328;2022-12-29T13:09:13;12.00;99.90
65074;DHT22;52218;51.224;-2.328;2022-12-29T13:36:56;10.00;99.90
65074;DHT22;52218;51.224;-2.328;2022-12-29T13:40:45;9.70;99.90
65074;DHT22;52218;51.224;-2.328;2022-12-29T13:48:58;9.50;99.90
65074;DHT22;52218;51.224;-2.328;2022-12-29T14:04:59;9.50;99.90
65074;DHT22;52218;51.224;-2.328;2022-12-29T14:08:42;9.30;99.90
65074;DHT22;52218;51.224;-2.328;2022-12-29T14:16:33;9.00;99.90
65074;DHT22;52218;51.224;-2.328;2022-12-29T14:20:21;9.00;99.90
65074;DHT22;52218;51.224;-2.328;2022-12-29T14:28:44;8.80;99.90
65074;DHT22;52218;51.224;-2.328;2022-12-29T14:36:34;8.60;99.90
65074;DHT22;52218;51.224;-2.328;2022-12-29T14:40:23;8.50;99.90
65074;DHT22;52218;51.224;-2.328;2022-12-29T14:47:50;8.50;99.90
65074;DHT22;52218;51.224;-2.328;2022-12-29T14:51:35;8.50;99.90
65074;DHT22;52218;51.224;-2.328;2022-12-29T14:59:01;8.30;99.90
65074;DHT22;52218;51.224;-2.328;2022-12-29T15:02:49;8.30;99.90
65074;DHT22;52218;51.224;-2.328;2022-12-29T15:06:31;8.20;99.90
65074;DHT22;52218;51.224;-2.328;2022-12-29T15:10:18;8.10;99.90
65074;DHT22;52218;51.224;-2.328;2022-12-29T15:14:01;8.00;99.90
65074;DHT22;52218;51.224;-2.328;2022-12-29T15:17:43;7.90;99.90
65074;DHT22;52218;51.224;-2.328;2022-12-29T15:21:30;7.90;99.90
65074;DHT22;52218;51.224;-2.328;2022-12-29T15:25:16;7.80;99.90
65074;DHT22;52218;51.224;-2.328;2022-12-29T15:28:58;7.80;99.90
65074;DHT22;52218;51.224;-2.328;2022-12-29T15:32:43;7.70;99.90
65074;DHT22;52218;51.224;-2.328;2022-12-29T15:36:27;7.70;99.90
65074;DHT22;52218;51.224;-2.328;2022-12-29T15:40:30;7.60;99.90
65074;DHT22;52218;51.224;-2.328;2022-12-29T15:44:17;7.60;99.90
65074;DHT22;52218;51.224;-2.328;2022-12-29T15:48:03;7.60;99.90
65074;DHT22;52218;51.224;-2.328;2022-12-29T15:51:46;7.60;99.90
65074;DHT22;52218;51.224;-2.328;2022-12-29T15:55:39;7.60;99.90
65074;DHT22;52218;51.224;-2.328;2022-12-29T16:03:06;7.70;99.90
65074;DHT22;52218;51.224;-2.328;2022-12-29T16:07:05;7.70;99.90
65074;DHT22;52218;51.224;-2.328;2022-12-29T16:10:47;7.60;99.90
65074;DHT22;52218;51.224;-2.328;2022-12-29T16:14:48;7.50;99.90
65074;DHT22;52218;51.224;-2.328;2022-12-29T16:18:36;7.30;99.90
65074;DHT22;52218;51.224;-2.328;2022-12-29T16:22:29;7.20;99.90
65074;DHT22;52218;51.224;-2.328;2022-12-29T16:26:17;7.00;99.90
65074;DHT22;52218;51.224;-2.328;2022-12-29T16:30:05;6.90;99.90
65074;DHT22;52218;51.224;-2.328;2022-12-29T16:33:52;6.80;99.90
65074;DHT22;52218;51.224;-2.328;2022-12-29T16:37:35;6.70;99.90
65074;DHT22;52218;51.224;-2.328;2022-12-29T16:41:31;6.60;99.90
65074;DHT22;52218;51.224;-2.328;2022-12-29T16:49:01;6.40;99.90
65074;DHT22;52218;51.224;-2.328;2022-12-29T16:52:43;6.30;99.90
65074;DHT22;52218;51.224;-2.328;2022-12-29T16:56:34;6.20;99.90
65074;DHT22;52218;51.224;-2.328;2022-12-29T17:00:20;6.10;99.90
65074;DHT22;52218;51.224;-2.328;2022-12-29T17:04:07;6.00;99.90
65074;DHT22;52218;51.224;-2.328;2022-12-29T17:07:50;6.00;99.90
65074;DHT22;52218;51.224;-2.328;2022-12-29T17:11:36;6.00;99.90
65074;DHT22;52218;51.224;-2.328;2022-12-29T17:15:43;6.00;99.90
65074;DHT22;52218;51.224;-2.328;2022-12-29T17:19:31;6.00;99.90
65074;DHT22;52218;51.224;-2.328;2022-12-29T17:23:15;5.90;99.90
65074;DHT22;52218;51.224;-2.328;2022-12-29T17:27:05;6.00;99.90
65074;DHT22;52218;51.224;-2.328;2022-12-29T17:30:47;5.90;99.90
65074;DHT22;52218;51.224;-2.328;2022-12-29T17:34:30;5.80;99.90
65074;DHT22;52218;51.224;-2.328;2022-12-29T17:38:21;5.80;99.90
65074;DHT22;52218;51.224;-2.328;2022-12-29T17:42:04;5.80;99.90
65074;DHT22;52218;51.224;-2.328;2022-12-29T17:45:52;5.70;99.90
65074;DHT22;52218;51.224;-2.328;2022-12-29T17:49:35;5.70;99.90
65074;DHT22;52218;51.224;-2.328;2022-12-29T17:53:23;5.70;99.90
65074;DHT22;52218;51.224;-2.328;2022-12-29T17:57:10;5.70;99.90
65074;DHT22;52218;51.224;-2.328;2022-12-29T18:00:58;5.70;99.90
65074;DHT22;52218;51.224;-2.328;2022-12-29T18:04:40;5.70;99.90
65074;DHT22;52218;51.224;-2.328;2022-12-29T18:08:23;5.60;99.90
65074;DHT22;52218;51.224;-2.328;2022-12-29T18:12:10;5.70;99.90
65074;DHT22;52218;51.224;-2.328;2022-12-29T18:16:01;5.70;99.90
65074;DHT22;52218;51.224;-2.328;2022-12-29T18:19:43;5.80;99.90
65074;DHT22;52218;51.224;-2.328;2022-12-29T18:23:30;5.80;99.90
65074;DHT22;52218;51.224;-2.328;2022-12-29T18:27:14;5.80;99.90
65074;DHT22;52218;51.224;-2.328;2022-12-29T18:30:59;5.80;99.90
65074;DHT22;52218;51.224;-2.328;2022-12-29T18:34:42;5.80;99.90
65074;DHT22;52218;51.224;-2.328;2022-12-29T18:38:24;5.80;99.90
65074;DHT22;52218;51.224;-2.328;2022-12-29T18:42:06;5.80;99.90
65074;DHT22;52218;51.224;-2.328;2022-12-29T18:45:49;5.80;99.90
65074;DHT22;52218;51.224;-2.328;2022-12-29T18:49:31;5.80;99.90
65074;DHT22;52218;51.224;-2.328;2022-12-29T18:53:19;5.80;99.90
65074;DHT22;52218;51.224;-2.328;2022-12-29T18:57:01;5.80;99.90
65074;DHT22;52218;51.224;-2.328;2022-12-29T19:00:44;5.80;99.90
65074;DHT22;52218;51.224;-2.328;2022-12-29T19:04:26;5.80;99.90
65074;DHT22;52218;51.224;-2.328;2022-12-29T19:08:09;5.80;99.90
65074;DHT22;52218;51.224;-2.328;2022-12-29T19:11:52;5.80;99.90
65074;DHT22;52218;51.224;-2.328;2022-12-29T19:15:35;5.80;99.90
65074;DHT22;52218;51.224;-2.328;2022-12-29T19:19:20;5.70;99.90
65074;DHT22;52218;51.224;-2.328;2022-12-29T19:23:06;5.70;99.90
65074;DHT22;52218;51.224;-2.328;2022-12-29T19:26:48;5.70;99.90
65074;DHT22;52218;51.224;-2.328;2022-12-29T19:30:30;5.70;99.90
65074;DHT22;52218;51.224;-2.328;2022-12-29T19:34:15;5.70;99.90
65074;DHT22;52218;51.224;-2.328;2022-12-29T19:37:57;5.70;99.90
65074;DHT22;52218;51.224;-2.328;2022-12-29T19:41:39;5.70;99.90
65074;DHT22;52218;51.224;-2.328;2022-12-29T19:45:22;5.70;99.90
65074;DHT22;52218;51.224;-2.328;2022-12-29T19:49:04;5.70;99.90
65074;DHT22;52218;51.224;-2.328;2022-12-29T19:52:46;5.70;99.90
65074;DHT22;52218;51.224;-2.328;2022-12-29T19:56:28;5.60;99.90
65074;DHT22;52218;51.224;-2.328;2022-12-29T20:00:11;5.40;99.90
65074;DHT22;52218;51.224;-2.328;2022-12-29T20:03:54;5.30;99.90
65074;DHT22;52218;51.224;-2.328;2022-12-29T20:07:36;5.20;99.90
65074;DHT22;52218;51.224;-2.328;2022-12-29T20:11:18;5.10;99.90
65074;DHT22;52218;51.224;-2.328;2022-12-29T20:15:00;4.90;99.90
65074;DHT22;52218;51.224;-2.328;2022-12-29T20:18:43;4.80;99.90
65074;DHT22;52218;51.224;-2.328;2022-12-29T20:22:25;4.80;99.90
65074;DHT22;52218;51.224;-2.328;2022-12-29T20:26:16;4.80;99.90
65074;DHT22;52218;51.224;-2.328;2022-12-29T20:29:59;4.70;99.90
65074;DHT22;52218;51.224;-2.328;2022-12-29T20:33:41;4.70;99.90
65074;DHT22;52218;51.224;-2.328;2022-12-29T20:37:23;4.80;99.90
65074;DHT22;52218;51.224;-2.328;2022-12-29T20:41:05;4.90;99.90
65074;DHT22;52218;51.224;-2.328;2022-12-29T20:44:47;5.00;99.90
65074;DHT22;52218;51.224;-2.328;2022-12-29T20:48:32;5.10;99.90
65074;DHT22;52218;51.224;-2.328;2022-12-29T20:52:14;5.20;99.90
65074;DHT22;52218;51.224;-2.328;2022-12-29T20:56:01;5.20;99.90
65074;DHT22;52218;51.224;-2.328;2022-12-29T20:59:44;5.30;99.90
65074;DHT22;52218;51.224;-2.328;2022-12-29T21:03:26;5.30;99.90
65074;DHT22;52218;51.224;-2.328;2022-12-29T21:07:08;5.30;99.90
65074;DHT22;52218;51.224;-2.328;2022-12-29T21:10:57;5.40;99.90
65074;DHT22;52218;51.224;-2.328;2022-12-29T21:14:39;5.30;99.90
65074;DHT22;52218;51.224;-2.328;2022-12-29T21:18:26;5.40;99.90
65074;DHT22;52218;51.224;-2.328;2022-12-29T21:22:08;5.40;99.90
65074;DHT22;52218;51.224;-2.328;2022-12-29T21:25:50;5.50;99.90
65074;DHT22;52218;51.224;-2.328;2022-12-29T21:29:33;5.50;99.90
65074;DHT22;52218;51.224;-2.328;2022-12-29T21:33:20;5.50;99.90
65074;DHT22;52218;51.224;-2.328;2022-12-29T21:37:02;5.60;99.90
65074;DHT22;52218;51.224;-2.328;2022-12-29T21:40:44;5.60;99.90
65074;DHT22;52218;51.224;-2.328;2022-12-29T21:44:26;5.50;99.90
65074;DHT22;52218;51.224;-2.328;2022-12-29T21:48:27;5.50;99.90
65074;DHT22;52218;51.224;-2.328;2022-12-29T21:52:10;5.60;99.90
65074;DHT22;52218;51.224;-2.328;2022-12-29T21:55:53;5.50;99.90
65074;DHT22;52218;51.224;-2.328;2022-12-29T21:59:35;5.50;99.90
65074;DHT22;52218;51.224;-2.328;2022-12-29T22:03:37;5.40;99.90
65074;DHT22;52218;51.224;-2.328;2022-12-29T22:07:37;5.30;99.90
65074;DHT22;52218;51.224;-2.328;2022-12-29T22:11:38;5.30;99.90
65074;DHT22;52218;51.224;-2.328;2022-12-29T22:15:39;5.30;99.90
65074;DHT22;52218;51.224;-2.328;2022-12-29T22:19:21;5.20;99.90
65074;DHT22;52218;51.224;-2.328;2022-12-29T22:23:03;5.20;99.90
65074;DHT22;52218;51.224;-2.328;2022-12-29T22:26:45;5.20;99.90
65074;DHT22;52218;51.224;-2.328;2022-12-29T22:30:27;5.20;99.90
65074;DHT22;52218;51.224;-2.328;2022-12-29T22:34:09;5.20;99.90
65074;DHT22;52218;51.224;-2.328;2022-12-29T22:37:51;5.30;99.90
65074;DHT22;52218;51.224;-2.328;2022-12-29T22:41:33;5.30;99.90
65074;DHT22;52218;51.224;-2.328;2022-12-29T22:45:15;5.40;99.90
65074;DHT22;52218;51.224;-2.328;2022-12-29T22:48:57;5.50;99.90
65074;DHT22;52218;51.224;-2.328;2022-12-29T22:52:39;5.60;99.90
65074;DHT22;52218;51.224;-2.328;2022-12-29T22:56:21;5.60;99.90
65074;DHT22;52218;51.224;-2.328;2022-12-29T23:00:05;5.70;99.90
65074;DHT22;52218;51.224;-2.328;2022-12-29T23:03:48;5.60;99.90
65074;DHT22;52218;51.224;-2.328;2022-12-29T23:07:32;5.60;99.90
65074;DHT22;52218;51.224;-2.328;2022-12-29T23:11:15;5.50;99.90
65074;DHT22;52218;51.224;-2.328;2022-12-29T23:14:57;5.50;99.90
65074;DHT22;52218;51.224;-2.328;2022-12-29T23:18:39;5.40;99.90
65074;DHT22;52218;51.224;-2.328;2022-12-29T23:22:22;5.40;99.90
65074;DHT22;52218;51.224;-2.328;2022-12-29T23:26:06;5.40;99.90
65074;DHT22;52218;51.224;-2.328;2022-12-29T23:29:48;5.40;99.90
65074;DHT22;52218;51.224;-2.328;2022-12-29T23:33:30;5.30;99.90
65074;DHT22;52218;51.224;-2.328;2022-12-29T23:37:12;5.30;99.90
65074;DHT22;52218;51.224;-2.328;2022-12-29T23:40:54;5.30;99.90
65074;DHT22;52218;51.224;-2.328;2022-12-29T23:44:36;5.30;99.90
65074;DHT22;52218;51.224;-2.328;2022-12-29T23:48:19;5.40;99.90
65074;DHT22;52218;51.224;-2.328;2022-12-29T23:52:01;5.50;99.90
65074;DHT22;52218;51.224;-2.328;2022-12-29T23:55:43;5.60;99.90
65074;DHT22;52218;51.224;-2.328;2022-12-29T23:59:25;5.80;99.90
